sensor_id;sensor_type;location;lat;lon;timestamp;P1;durP1;ratioP1;P2;durP2;ratioP2
6475;SDS011;3271;51.910;5.840;2023-06-05T00:02:10;3.92;;;2.50;;
6475;SDS011;3271;51.910;5.840;2023-06-05T00:04:36;3.72;;;2.80;;
6475;SDS011;3271;51.910;5.840;2023-06-05T00:07:02;3.78;;;2.30;;
6475;SDS011;3271;51.910;5.840;2023-06-05T00:09:28;2.95;;;2.40;;
6475;SDS011;3271;51.910;5.840;2023-06-05T00:11:54;4.35;;;2.60;;
6475;SDS011;3271;51.910;5.840;2023-06-05T00:14:20;3.13;;;2.60;;
6475;SDS011;3271;51.910;5.840;2023-06-05T00:16:46;3.60;;;2.53;;
6475;SDS011;3271;51.910;5.840;2023-06-05T00:19:12;3.88;;;2.53;;
6475;SDS011;3271;51.910;5.840;2023-06-05T00:21:38;3.45;;;2.50;;
6475;SDS011;3271;51.910;5.840;2023-06-05T00:24:04;4.05;;;2.60;;
6475;SDS011;3271;51.910;5.840;2023-06-05T00:26:30;3.53;;;2.50;;
6475;SDS011;3271;51.910;5.840;2023-06-05T00:28:56;4.60;;;3.05;;
6475;SDS011;3271;51.910;5.840;2023-06-05T00:31:21;3.55;;;2.50;;
6475;SDS011;3271;51.910;5.840;2023-06-05T00:33:48;4.95;;;2.78;;
6475;SDS011;3271;51.910;5.840;2023-06-05T00:36:14;3.38;;;3.00;;
6475;SDS011;3271;51.910;5.840;2023-06-05T00:38:40;3.58;;;2.50;;
6475;SDS011;3271;51.910;5.840;2023-06-05T00:41:06;3.25;;;2.95;;
6475;SDS011;3271;51.910;5.840;2023-06-05T00:43:32;4.00;;;3.03;;
6475;SDS011;3271;51.910;5.840;2023-06-05T00:45:58;4.07;;;3.00;;
6475;SDS011;3271;51.910;5.840;2023-06-05T00:48:25;4.63;;;2.90;;
6475;SDS011;3271;51.910;5.840;2023-06-05T00:50:51;4.60;;;2.80;;
6475;SDS011;3271;51.910;5.840;2023-06-05T00:53:17;3.42;;;2.50;;
6475;SDS011;3271;51.910;5.840;2023-06-05T00:55:43;3.45;;;2.92;;
6475;SDS011;3271;51.910;5.840;2023-06-05T00:58:10;3.47;;;2.92;;
6475;SDS011;3271;51.910;5.840;2023-06-05T01:00:36;3.13;;;2.92;;
6475;SDS011;3271;51.910;5.840;2023-06-05T01:03:02;8.20;;;3.17;;
6475;SDS011;3271;51.910;5.840;2023-06-05T01:05:29;3.40;;;3.10;;
6475;SDS011;3271;51.910;5.840;2023-06-05T01:07:54;3.60;;;3.30;;
6475;SDS011;3271;51.910;5.840;2023-06-05T01:10:20;4.10;;;3.17;;
6475;SDS011;3271;51.910;5.840;2023-06-05T01:12:53;2.90;;;2.70;;
6475;SDS011;3271;51.910;5.840;2023-06-05T01:15:19;4.35;;;3.00;;
6475;SDS011;3271;51.910;5.840;2023-06-05T01:17:53;3.75;;;3.00;;
6475;SDS011;3271;51.910;5.840;2023-06-05T01:20:20;5.70;;;3.83;;
6475;SDS011;3271;51.910;5.840;2023-06-05T01:22:47;3.33;;;3.00;;
6475;SDS011;3271;51.910;5.840;2023-06-05T01:25:14;3.65;;;3.28;;
6475;SDS011;3271;51.910;5.840;2023-06-05T01:27:41;4.85;;;4.10;;
6475;SDS011;3271;51.910;5.840;2023-06-05T01:30:15;3.80;;;2.80;;
6475;SDS011;3271;51.910;5.840;2023-06-05T01:32:49;5.97;;;3.17;;
6475;SDS011;3271;51.910;5.840;2023-06-05T01:35:19;6.40;;;3.30;;
6475;SDS011;3271;51.910;5.840;2023-06-05T01:37:48;5.28;;;3.38;;
6475;SDS011;3271;51.910;5.840;2023-06-05T01:40:16;3.53;;;3.17;;
6475;SDS011;3271;51.910;5.840;2023-06-05T01:42:43;4.95;;;3.85;;
6475;SDS011;3271;51.910;5.840;2023-06-05T01:45:10;5.97;;;3.72;;
6475;SDS011;3271;51.910;5.840;2023-06-05T01:47:36;3.45;;;3.15;;
6475;SDS011;3271;51.910;5.840;2023-06-05T01:50:03;5.38;;;3.33;;
6475;SDS011;3271;51.910;5.840;2023-06-05T01:52:29;3.40;;;3.00;;
6475;SDS011;3271;51.910;5.840;2023-06-05T01:54:55;3.88;;;3.47;;
6475;SDS011;3271;51.910;5.840;2023-06-05T01:57:24;3.80;;;3.50;;
6475;SDS011;3271;51.910;5.840;2023-06-05T01:59:51;4.55;;;3.65;;
6475;SDS011;3271;51.910;5.840;2023-06-05T02:02:19;4.68;;;3.55;;
6475;SDS011;3271;51.910;5.840;2023-06-05T02:04:46;3.60;;;3.30;;
6475;SDS011;3271;51.910;5.840;2023-06-05T02:07:12;4.50;;;3.55;;
6475;SDS011;3271;51.910;5.840;2023-06-05T02:09:39;3.78;;;3.47;;
6475;SDS011;3271;51.910;5.840;2023-06-05T02:12:05;4.25;;;3.33;;
6475;SDS011;3271;51.910;5.840;2023-06-05T02:14:32;5.68;;;3.70;;
6475;SDS011;3271;51.910;5.840;2023-06-05T02:17:02;5.22;;;3.53;;
6475;SDS011;3271;51.910;5.840;2023-06-05T02:19:31;4.40;;;3.78;;
6475;SDS011;3271;51.910;5.840;2023-06-05T02:21:57;4.60;;;3.72;;
6475;SDS011;3271;51.910;5.840;2023-06-05T02:24:23;4.15;;;3.70;;
6475;SDS011;3271;51.910;5.840;2023-06-05T02:26:50;3.88;;;3.58;;
6475;SDS011;3271;51.910;5.840;2023-06-05T02:29:16;4.10;;;3.58;;
6475;SDS011;3271;51.910;5.840;2023-06-05T02:31:42;5.40;;;3.80;;
6475;SDS011;3271;51.910;5.840;2023-06-05T02:34:08;4.90;;;4.40;;
6475;SDS011;3271;51.910;5.840;2023-06-05T02:36:34;4.47;;;4.00;;
6475;SDS011;3271;51.910;5.840;2023-06-05T02:39:00;4.78;;;3.72;;
6475;SDS011;3271;51.910;5.840;2023-06-05T02:41:27;5.20;;;4.00;;
6475;SDS011;3271;51.910;5.840;2023-06-05T02:43:53;5.03;;;3.67;;
6475;SDS011;3271;51.910;5.840;2023-06-05T02:46:20;5.00;;;4.03;;
6475;SDS011;3271;51.910;5.840;2023-06-05T02:48:46;4.43;;;4.00;;
6475;SDS011;3271;51.910;5.840;2023-06-05T02:51:12;5.90;;;4.43;;
6475;SDS011;3271;51.910;5.840;2023-06-05T02:53:38;5.13;;;4.60;;
6475;SDS011;3271;51.910;5.840;2023-06-05T02:56:04;5.75;;;4.40;;
6475;SDS011;3271;51.910;5.840;2023-06-05T02:58:30;4.90;;;4.50;;
6475;SDS011;3271;51.910;5.840;2023-06-05T03:00:58;5.07;;;4.57;;
6475;SDS011;3271;51.910;5.840;2023-06-05T03:03:27;5.47;;;4.97;;
6475;SDS011;3271;51.910;5.840;2023-06-05T03:05:54;4.40;;;3.97;;
6475;SDS011;3271;51.910;5.840;2023-06-05T03:08:20;4.65;;;4.25;;
6475;SDS011;3271;51.910;5.840;2023-06-05T03:10:46;6.47;;;4.80;;
6475;SDS011;3271;51.910;5.840;2023-06-05T03:13:12;5.45;;;4.30;;
6475;SDS011;3271;51.910;5.840;2023-06-05T03:15:38;7.18;;;5.13;;
6475;SDS011;3271;51.910;5.840;2023-06-05T03:18:04;5.05;;;4.28;;
6475;SDS011;3271;51.910;5.840;2023-06-05T03:20:30;4.70;;;4.28;;
6475;SDS011;3271;51.910;5.840;2023-06-05T03:22:56;5.30;;;4.80;;
6475;SDS011;3271;51.910;5.840;2023-06-05T03:25:22;5.80;;;4.97;;
6475;SDS011;3271;51.910;5.840;2023-06-05T03:27:48;5.22;;;4.63;;
6475;SDS011;3271;51.910;5.840;2023-06-05T03:30:14;5.13;;;4.63;;
6475;SDS011;3271;51.910;5.840;2023-06-05T03:32:43;5.20;;;4.70;;
6475;SDS011;3271;51.910;5.840;2023-06-05T03:35:10;6.60;;;4.75;;
6475;SDS011;3271;51.910;5.840;2023-06-05T03:37:36;5.53;;;4.75;;
6475;SDS011;3271;51.910;5.840;2023-06-05T03:40:02;5.20;;;4.47;;
6475;SDS011;3271;51.910;5.840;2023-06-05T03:42:29;4.88;;;4.47;;
6475;SDS011;3271;51.910;5.840;2023-06-05T03:44:55;5.40;;;4.90;;
6475;SDS011;3271;51.910;5.840;2023-06-05T03:47:21;5.35;;;4.82;;
6475;SDS011;3271;51.910;5.840;2023-06-05T03:49:46;5.50;;;4.65;;
6475;SDS011;3271;51.910;5.840;2023-06-05T03:52:13;7.20;;;5.15;;
6475;SDS011;3271;51.910;5.840;2023-06-05T03:54:39;7.88;;;4.82;;
6475;SDS011;3271;51.910;5.840;2023-06-05T03:57:06;5.63;;;4.78;;
6475;SDS011;3271;51.910;5.840;2023-06-05T03:59:37;7.82;;;4.70;;
6475;SDS011;3271;51.910;5.840;2023-06-05T04:02:03;5.25;;;4.70;;
6475;SDS011;3271;51.910;5.840;2023-06-05T04:04:29;8.13;;;5.82;;
6475;SDS011;3271;51.910;5.840;2023-06-05T04:06:55;6.13;;;5.45;;
6475;SDS011;3271;51.910;5.840;2023-06-05T04:09:21;5.20;;;4.70;;
6475;SDS011;3271;51.910;5.840;2023-06-05T04:11:47;6.30;;;5.65;;
6475;SDS011;3271;51.910;5.840;2023-06-05T04:14:14;7.22;;;5.00;;
6475;SDS011;3271;51.910;5.840;2023-06-05T04:16:40;6.78;;;5.13;;
6475;SDS011;3271;51.910;5.840;2023-06-05T04:19:10;5.30;;;4.57;;
6475;SDS011;3271;51.910;5.840;2023-06-05T04:21:37;7.32;;;5.32;;
6475;SDS011;3271;51.910;5.840;2023-06-05T04:24:03;5.68;;;5.03;;
6475;SDS011;3271;51.910;5.840;2023-06-05T04:26:32;6.32;;;5.00;;
6475;SDS011;3271;51.910;5.840;2023-06-05T04:28:58;6.20;;;5.32;;
6475;SDS011;3271;51.910;5.840;2023-06-05T04:31:24;6.05;;;5.47;;
6475;SDS011;3271;51.910;5.840;2023-06-05T04:33:50;6.20;;;5.20;;
6475;SDS011;3271;51.910;5.840;2023-06-05T04:36:17;5.97;;;5.00;;
6475;SDS011;3271;51.910;5.840;2023-06-05T04:38:46;5.65;;;5.13;;
6475;SDS011;3271;51.910;5.840;2023-06-05T04:41:11;5.60;;;5.05;;
6475;SDS011;3271;51.910;5.840;2023-06-05T04:43:37;5.95;;;5.35;;
6475;SDS011;3271;51.910;5.840;2023-06-05T04:46:03;6.75;;;5.38;;
6475;SDS011;3271;51.910;5.840;2023-06-05T04:48:29;6.25;;;4.70;;
6475;SDS011;3271;51.910;5.840;2023-06-05T04:50:55;6.25;;;5.50;;
6475;SDS011;3271;51.910;5.840;2023-06-05T04:53:23;5.63;;;5.10;;
6475;SDS011;3271;51.910;5.840;2023-06-05T04:55:49;5.43;;;4.93;;
6475;SDS011;3271;51.910;5.840;2023-06-05T04:58:15;6.32;;;5.22;;
6475;SDS011;3271;51.910;5.840;2023-06-05T05:00:42;6.35;;;5.15;;
6475;SDS011;3271;51.910;5.840;2023-06-05T05:03:09;6.50;;;5.82;;
6475;SDS011;3271;51.910;5.840;2023-06-05T05:05:38;7.88;;;4.97;;
6475;SDS011;3271;51.910;5.840;2023-06-05T05:08:04;7.18;;;5.20;;
6475;SDS011;3271;51.910;5.840;2023-06-05T05:10:31;7.75;;;5.10;;
6475;SDS011;3271;51.910;5.840;2023-06-05T05:12:57;5.03;;;4.55;;
6475;SDS011;3271;51.910;5.840;2023-06-05T05:15:27;5.95;;;4.55;;
6475;SDS011;3271;51.910;5.840;2023-06-05T05:17:54;6.88;;;5.03;;
6475;SDS011;3271;51.910;5.840;2023-06-05T05:20:21;6.05;;;5.10;;
6475;SDS011;3271;51.910;5.840;2023-06-05T05:22:47;6.03;;;5.10;;
6475;SDS011;3271;51.910;5.840;2023-06-05T05:25:13;7.45;;;5.68;;
6475;SDS011;3271;51.910;5.840;2023-06-05T05:27:40;5.55;;;4.97;;
6475;SDS011;3271;51.910;5.840;2023-06-05T05:30:07;5.93;;;4.93;;
6475;SDS011;3271;51.910;5.840;2023-06-05T05:32:33;5.60;;;4.82;;
6475;SDS011;3271;51.910;5.840;2023-06-05T05:34:59;6.00;;;4.90;;
6475;SDS011;3271;51.910;5.840;2023-06-05T05:37:25;6.20;;;4.95;;
6475;SDS011;3271;51.910;5.840;2023-06-05T05:39:51;5.22;;;4.70;;
6475;SDS011;3271;51.910;5.840;2023-06-05T05:42:17;6.40;;;4.75;;
6475;SDS011;3271;51.910;5.840;2023-06-05T05:44:43;6.03;;;4.80;;
6475;SDS011;3271;51.910;5.840;2023-06-05T05:47:10;6.60;;;4.97;;
6475;SDS011;3271;51.910;5.840;2023-06-05T05:49:36;6.85;;;5.28;;
6475;SDS011;3271;51.910;5.840;2023-06-05T05:52:02;6.22;;;5.10;;
6475;SDS011;3271;51.910;5.840;2023-06-05T05:54:28;6.90;;;4.85;;
6475;SDS011;3271;51.910;5.840;2023-06-05T05:56:54;7.57;;;5.22;;
6475;SDS011;3271;51.910;5.840;2023-06-05T05:59:21;7.95;;;5.05;;
6475;SDS011;3271;51.910;5.840;2023-06-05T06:01:47;5.30;;;4.68;;
6475;SDS011;3271;51.910;5.840;2023-06-05T06:04:16;8.40;;;5.13;;
6475;SDS011;3271;51.910;5.840;2023-06-05T06:06:43;6.45;;;4.75;;
6475;SDS011;3271;51.910;5.840;2023-06-05T06:09:12;5.30;;;4.80;;
6475;SDS011;3271;51.910;5.840;2023-06-05T06:11:39;6.07;;;5.10;;
6475;SDS011;3271;51.910;5.840;2023-06-05T06:14:05;8.88;;;6.00;;
6475;SDS011;3271;51.910;5.840;2023-06-05T06:16:31;6.68;;;5.28;;
6475;SDS011;3271;51.910;5.840;2023-06-05T06:18:58;6.13;;;4.80;;
6475;SDS011;3271;51.910;5.840;2023-06-05T06:21:24;8.70;;;5.32;;
6475;SDS011;3271;51.910;5.840;2023-06-05T06:23:50;7.40;;;4.88;;
6475;SDS011;3271;51.910;5.840;2023-06-05T06:26:16;6.03;;;4.85;;
6475;SDS011;3271;51.910;5.840;2023-06-05T06:28:42;7.72;;;5.13;;
6475;SDS011;3271;51.910;5.840;2023-06-05T06:31:07;5.70;;;4.90;;
6475;SDS011;3271;51.910;5.840;2023-06-05T06:33:33;10.98;;;5.15;;
6475;SDS011;3271;51.910;5.840;2023-06-05T06:36:01;6.57;;;4.53;;
6475;SDS011;3271;51.910;5.840;2023-06-05T06:38:28;7.78;;;5.55;;
6475;SDS011;3271;51.910;5.840;2023-06-05T06:40:56;7.85;;;4.88;;
6475;SDS011;3271;51.910;5.840;2023-06-05T06:43:22;7.60;;;4.43;;
6475;SDS011;3271;51.910;5.840;2023-06-05T06:45:48;5.75;;;4.57;;
6475;SDS011;3271;51.910;5.840;2023-06-05T06:48:16;7.03;;;4.20;;
6475;SDS011;3271;51.910;5.840;2023-06-05T06:50:43;4.15;;;3.65;;
6475;SDS011;3271;51.910;5.840;2023-06-05T06:53:09;4.78;;;4.07;;
6475;SDS011;3271;51.910;5.840;2023-06-05T06:55:35;6.55;;;4.13;;
6475;SDS011;3271;51.910;5.840;2023-06-05T06:58:01;5.97;;;4.68;;
6475;SDS011;3271;51.910;5.840;2023-06-05T07:00:27;7.38;;;4.63;;
6475;SDS011;3271;51.910;5.840;2023-06-05T07:02:53;4.22;;;3.83;;
6475;SDS011;3271;51.910;5.840;2023-06-05T07:05:19;6.03;;;5.03;;
6475;SDS011;3271;51.910;5.840;2023-06-05T07:07:45;4.90;;;4.03;;
6475;SDS011;3271;51.910;5.840;2023-06-05T07:10:11;4.40;;;3.75;;
6475;SDS011;3271;51.910;5.840;2023-06-05T07:12:37;4.40;;;3.63;;
6475;SDS011;3271;51.910;5.840;2023-06-05T07:15:03;6.03;;;4.03;;
6475;SDS011;3271;51.910;5.840;2023-06-05T07:17:30;4.72;;;3.92;;
6475;SDS011;3271;51.910;5.840;2023-06-05T07:19:56;4.32;;;3.65;;
6475;SDS011;3271;51.910;5.840;2023-06-05T07:22:22;3.90;;;3.50;;
6475;SDS011;3271;51.910;5.840;2023-06-05T07:24:52;6.00;;;4.40;;
6475;SDS011;3271;51.910;5.840;2023-06-05T07:27:18;4.68;;;4.00;;
6475;SDS011;3271;51.910;5.840;2023-06-05T07:29:45;5.38;;;3.95;;
6475;SDS011;3271;51.910;5.840;2023-06-05T07:32:11;5.20;;;4.45;;
6475;SDS011;3271;51.910;5.840;2023-06-05T07:34:38;4.65;;;3.70;;
6475;SDS011;3271;51.910;5.840;2023-06-05T07:37:04;5.82;;;4.38;;
6475;SDS011;3271;51.910;5.840;2023-06-05T07:39:32;7.00;;;4.18;;
6475;SDS011;3271;51.910;5.840;2023-06-05T07:41:58;4.97;;;4.05;;
6475;SDS011;3271;51.910;5.840;2023-06-05T07:44:24;5.45;;;3.72;;
6475;SDS011;3271;51.910;5.840;2023-06-05T07:46:50;6.43;;;4.63;;
6475;SDS011;3271;51.910;5.840;2023-06-05T07:49:16;6.13;;;4.38;;
6475;SDS011;3271;51.910;5.840;2023-06-05T07:51:43;6.35;;;3.72;;
6475;SDS011;3271;51.910;5.840;2023-06-05T07:54:11;7.25;;;4.45;;
6475;SDS011;3271;51.910;5.840;2023-06-05T07:56:37;4.63;;;3.85;;
6475;SDS011;3271;51.910;5.840;2023-06-05T07:59:04;6.97;;;4.60;;
6475;SDS011;3271;51.910;5.840;2023-06-05T08:01:30;4.60;;;4.18;;
6475;SDS011;3271;51.910;5.840;2023-06-05T08:03:56;5.20;;;4.13;;
6475;SDS011;3271;51.910;5.840;2023-06-05T08:06:23;6.35;;;4.20;;
6475;SDS011;3271;51.910;5.840;2023-06-05T08:08:52;8.15;;;4.45;;
6475;SDS011;3271;51.910;5.840;2023-06-05T08:11:18;5.43;;;3.85;;
6475;SDS011;3271;51.910;5.840;2023-06-05T08:13:44;5.78;;;4.53;;
6475;SDS011;3271;51.910;5.840;2023-06-05T08:16:10;4.78;;;4.25;;
6475;SDS011;3271;51.910;5.840;2023-06-05T08:18:36;6.18;;;3.88;;
6475;SDS011;3271;51.910;5.840;2023-06-05T08:21:02;5.35;;;4.10;;
6475;SDS011;3271;51.910;5.840;2023-06-05T08:23:28;5.72;;;4.10;;
6475;SDS011;3271;51.910;5.840;2023-06-05T08:25:54;5.90;;;3.55;;
6475;SDS011;3271;51.910;5.840;2023-06-05T08:28:20;7.10;;;3.63;;
6475;SDS011;3271;51.910;5.840;2023-06-05T08:30:46;4.15;;;3.40;;
6475;SDS011;3271;51.910;5.840;2023-06-05T08:33:13;4.93;;;3.47;;
6475;SDS011;3271;51.910;5.840;2023-06-05T08:35:39;6.63;;;3.78;;
6475;SDS011;3271;51.910;5.840;2023-06-05T08:38:06;5.97;;;3.92;;
6475;SDS011;3271;51.910;5.840;2023-06-05T08:40:32;6.82;;;4.05;;
6475;SDS011;3271;51.910;5.840;2023-06-05T08:42:59;5.57;;;3.72;;
6475;SDS011;3271;51.910;5.840;2023-06-05T08:45:26;7.95;;;4.82;;
6475;SDS011;3271;51.910;5.840;2023-06-05T08:47:52;6.05;;;4.18;;
6475;SDS011;3271;51.910;5.840;2023-06-05T08:50:20;5.25;;;3.88;;
6475;SDS011;3271;51.910;5.840;2023-06-05T08:52:45;5.22;;;4.22;;
6475;SDS011;3271;51.910;5.840;2023-06-05T08:55:14;6.32;;;4.60;;
6475;SDS011;3271;51.910;5.840;2023-06-05T08:57:41;6.47;;;4.13;;
6475;SDS011;3271;51.910;5.840;2023-06-05T09:00:07;5.53;;;3.80;;
6475;SDS011;3271;51.910;5.840;2023-06-05T09:02:39;6.97;;;4.45;;
6475;SDS011;3271;51.910;5.840;2023-06-05T09:05:09;5.28;;;3.97;;
6475;SDS011;3271;51.910;5.840;2023-06-05T09:07:35;7.82;;;4.72;;
6475;SDS011;3271;51.910;5.840;2023-06-05T09:10:06;5.35;;;4.20;;
6475;SDS011;3271;51.910;5.840;2023-06-05T09:15:20;6.75;;;3.85;;
6475;SDS011;3271;51.910;5.840;2023-06-05T09:17:47;5.05;;;4.43;;
6475;SDS011;3271;51.910;5.840;2023-06-05T09:20:23;3.67;;;3.13;;
6475;SDS011;3271;51.910;5.840;2023-06-05T09:22:49;8.40;;;4.25;;
6475;SDS011;3271;51.910;5.840;2023-06-05T09:25:15;5.63;;;4.30;;
6475;SDS011;3271;51.910;5.840;2023-06-05T09:27:41;7.20;;;4.35;;
6475;SDS011;3271;51.910;5.840;2023-06-05T09:30:07;7.05;;;4.47;;
6475;SDS011;3271;51.910;5.840;2023-06-05T09:32:33;6.13;;;3.70;;
6475;SDS011;3271;51.910;5.840;2023-06-05T09:35:00;5.70;;;4.18;;
6475;SDS011;3271;51.910;5.840;2023-06-05T09:37:33;5.78;;;4.18;;
6475;SDS011;3271;51.910;5.840;2023-06-05T09:40:00;5.20;;;4.10;;
6475;SDS011;3271;51.910;5.840;2023-06-05T09:42:32;5.30;;;4.68;;
6475;SDS011;3271;51.910;5.840;2023-06-05T09:44:58;5.75;;;4.80;;
6475;SDS011;3271;51.910;5.840;2023-06-05T09:47:24;7.30;;;4.13;;
6475;SDS011;3271;51.910;5.840;2023-06-05T09:49:50;5.65;;;4.75;;
6475;SDS011;3271;51.910;5.840;2023-06-05T09:52:16;7.50;;;4.03;;
6475;SDS011;3271;51.910;5.840;2023-06-05T09:54:43;7.25;;;5.90;;
6475;SDS011;3271;51.910;5.840;2023-06-05T09:57:10;6.72;;;4.47;;
6475;SDS011;3271;51.910;5.840;2023-06-05T10:00:09;5.43;;;3.90;;
6475;SDS011;3271;51.910;5.840;2023-06-05T10:02:35;8.02;;;4.50;;
6475;SDS011;3271;51.910;5.840;2023-06-05T10:05:02;6.20;;;4.03;;
6475;SDS011;3271;51.910;5.840;2023-06-05T10:07:31;5.63;;;4.15;;
6475;SDS011;3271;51.910;5.840;2023-06-05T10:10:00;4.53;;;3.38;;
6475;SDS011;3271;51.910;5.840;2023-06-05T10:12:26;5.38;;;4.88;;
6475;SDS011;3271;51.910;5.840;2023-06-05T10:14:52;4.93;;;3.92;;
6475;SDS011;3271;51.910;5.840;2023-06-05T10:17:20;6.25;;;4.47;;
6475;SDS011;3271;51.910;5.840;2023-06-05T10:19:47;6.47;;;4.22;;
6475;SDS011;3271;51.910;5.840;2023-06-05T10:22:13;5.82;;;4.43;;
6475;SDS011;3271;51.910;5.840;2023-06-05T10:24:51;5.88;;;3.97;;
6475;SDS011;3271;51.910;5.840;2023-06-05T10:33:20;4.93;;;4.20;;
6475;SDS011;3271;51.910;5.840;2023-06-05T10:35:41;4.45;;;4.03;;
6475;SDS011;3271;51.910;5.840;2023-06-05T10:38:23;5.63;;;4.20;;
6475;SDS011;3271;51.910;5.840;2023-06-05T10:40:54;7.85;;;5.05;;
6475;SDS011;3271;51.910;5.840;2023-06-05T10:43:45;5.47;;;4.80;;
6475;SDS011;3271;51.910;5.840;2023-06-05T10:46:32;4.57;;;3.85;;
6475;SDS011;3271;51.910;5.840;2023-06-05T10:54:02;6.13;;;4.50;;
6475;SDS011;3271;51.910;5.840;2023-06-05T10:59:13;5.03;;;4.22;;
6475;SDS011;3271;51.910;5.840;2023-06-05T11:01:39;5.53;;;4.10;;
6475;SDS011;3271;51.910;5.840;2023-06-05T11:04:06;6.18;;;3.72;;
6475;SDS011;3271;51.910;5.840;2023-06-05T11:06:32;7.05;;;4.40;;
6475;SDS011;3271;51.910;5.840;2023-06-05T11:11:56;4.60;;;3.47;;
6475;SDS011;3271;51.910;5.840;2023-06-05T11:14:22;3.78;;;3.40;;
6475;SDS011;3271;51.910;5.840;2023-06-05T11:16:48;4.70;;;4.07;;
6475;SDS011;3271;51.910;5.840;2023-06-05T11:24:35;5.95;;;5.00;;
6475;SDS011;3271;51.910;5.840;2023-06-05T11:27:01;4.05;;;3.20;;
6475;SDS011;3271;51.910;5.840;2023-06-05T11:29:28;6.30;;;3.92;;
6475;SDS011;3271;51.910;5.840;2023-06-05T11:31:54;3.55;;;3.17;;
6475;SDS011;3271;51.910;5.840;2023-06-05T11:34:21;6.35;;;4.22;;
6475;SDS011;3271;51.910;5.840;2023-06-05T11:36:47;5.43;;;4.10;;
6475;SDS011;3271;51.910;5.840;2023-06-05T11:39:14;4.18;;;3.78;;
6475;SDS011;3271;51.910;5.840;2023-06-05T11:41:46;4.22;;;3.70;;
6475;SDS011;3271;51.910;5.840;2023-06-05T11:44:13;5.60;;;4.07;;
6475;SDS011;3271;51.910;5.840;2023-06-05T11:46:39;6.50;;;3.65;;
6475;SDS011;3271;51.910;5.840;2023-06-05T11:49:06;4.45;;;3.60;;
6475;SDS011;3271;51.910;5.840;2023-06-05T11:51:33;6.90;;;3.45;;
6475;SDS011;3271;51.910;5.840;2023-06-05T11:54:03;5.85;;;3.40;;
6475;SDS011;3271;51.910;5.840;2023-06-05T11:56:32;4.00;;;3.38;;
6475;SDS011;3271;51.910;5.840;2023-06-05T11:58:58;4.32;;;3.03;;
6475;SDS011;3271;51.910;5.840;2023-06-05T12:01:24;5.05;;;4.00;;
6475;SDS011;3271;51.910;5.840;2023-06-05T12:04:06;5.95;;;2.92;;
6475;SDS011;3271;51.910;5.840;2023-06-05T12:06:32;4.53;;;2.70;;
6475;SDS011;3271;51.910;5.840;2023-06-05T12:09:08;3.72;;;2.88;;
6475;SDS011;3271;51.910;5.840;2023-06-05T12:11:35;4.38;;;3.00;;
6475;SDS011;3271;51.910;5.840;2023-06-05T12:14:02;4.38;;;3.00;;
6475;SDS011;3271;51.910;5.840;2023-06-05T12:16:29;2.78;;;2.55;;
6475;SDS011;3271;51.910;5.840;2023-06-05T12:18:56;4.20;;;2.90;;
6475;SDS011;3271;51.910;5.840;2023-06-05T12:21:23;3.45;;;2.83;;
6475;SDS011;3271;51.910;5.840;2023-06-05T12:23:50;3.10;;;2.55;;
6475;SDS011;3271;51.910;5.840;2023-06-05T12:26:16;4.63;;;3.20;;
6475;SDS011;3271;51.910;5.840;2023-06-05T12:28:42;4.78;;;3.60;;
6475;SDS011;3271;51.910;5.840;2023-06-05T12:31:09;3.47;;;2.97;;
6475;SDS011;3271;51.910;5.840;2023-06-05T12:33:45;3.60;;;3.30;;
6475;SDS011;3271;51.910;5.840;2023-06-05T12:36:11;3.85;;;3.53;;
6475;SDS011;3271;51.910;5.840;2023-06-05T12:38:38;3.55;;;3.25;;
6475;SDS011;3271;51.910;5.840;2023-06-05T12:41:05;4.18;;;3.08;;
6475;SDS011;3271;51.910;5.840;2023-06-05T12:43:34;4.72;;;3.00;;
6475;SDS011;3271;51.910;5.840;2023-06-05T12:46:00;4.10;;;2.60;;
6475;SDS011;3271;51.910;5.840;2023-06-05T12:48:27;4.43;;;3.05;;
6475;SDS011;3271;51.910;5.840;2023-06-05T12:50:53;4.45;;;2.80;;
6475;SDS011;3271;51.910;5.840;2023-06-05T12:53:21;4.18;;;2.92;;
6475;SDS011;3271;51.910;5.840;2023-06-05T12:55:47;3.03;;;2.60;;
6475;SDS011;3271;51.910;5.840;2023-06-05T12:58:13;3.05;;;2.75;;
6475;SDS011;3271;51.910;5.840;2023-06-05T13:00:39;3.63;;;3.13;;
6475;SDS011;3271;51.910;5.840;2023-06-05T13:03:06;3.90;;;2.95;;
6475;SDS011;3271;51.910;5.840;2023-06-05T13:05:34;3.42;;;3.05;;
6475;SDS011;3271;51.910;5.840;2023-06-05T13:08:00;4.68;;;2.88;;
6475;SDS011;3271;51.910;5.840;2023-06-05T13:10:26;4.10;;;2.25;;
6475;SDS011;3271;51.910;5.840;2023-06-05T13:12:52;3.28;;;2.00;;
6475;SDS011;3271;51.910;5.840;2023-06-05T13:15:18;4.53;;;2.55;;
6475;SDS011;3271;51.910;5.840;2023-06-05T13:17:44;4.47;;;2.80;;
6475;SDS011;3271;51.910;5.840;2023-06-05T13:20:11;3.25;;;2.40;;
6475;SDS011;3271;51.910;5.840;2023-06-05T13:22:38;2.72;;;2.20;;
6475;SDS011;3271;51.910;5.840;2023-06-05T13:25:04;4.22;;;2.30;;
6475;SDS011;3271;51.910;5.840;2023-06-05T13:27:30;3.03;;;2.38;;
6475;SDS011;3271;51.910;5.840;2023-06-05T13:29:56;5.88;;;2.70;;
6475;SDS011;3271;51.910;5.840;2023-06-05T13:32:22;3.40;;;2.28;;
6475;SDS011;3271;51.910;5.840;2023-06-05T13:34:48;2.35;;;2.15;;
6475;SDS011;3271;51.910;5.840;2023-06-05T13:37:14;4.30;;;2.30;;
6475;SDS011;3271;51.910;5.840;2023-06-05T13:39:40;4.47;;;2.65;;
6475;SDS011;3271;51.910;5.840;2023-06-05T13:42:06;4.93;;;2.72;;
6475;SDS011;3271;51.910;5.840;2023-06-05T13:44:32;4.78;;;2.67;;
6475;SDS011;3271;51.910;5.840;2023-06-05T13:46:59;3.03;;;2.33;;
6475;SDS011;3271;51.910;5.840;2023-06-05T13:49:28;3.35;;;2.50;;
6475;SDS011;3271;51.910;5.840;2023-06-05T13:51:54;4.22;;;2.50;;
6475;SDS011;3271;51.910;5.840;2023-06-05T13:54:19;2.60;;;2.40;;
6475;SDS011;3271;51.910;5.840;2023-06-05T13:56:45;4.55;;;2.40;;
6475;SDS011;3271;51.910;5.840;2023-06-05T13:59:11;4.00;;;2.78;;
6475;SDS011;3271;51.910;5.840;2023-06-05T14:01:37;5.32;;;3.05;;
6475;SDS011;3271;51.910;5.840;2023-06-05T14:04:03;3.03;;;2.45;;
6475;SDS011;3271;51.910;5.840;2023-06-05T14:06:29;2.22;;;2.08;;
6475;SDS011;3271;51.910;5.840;2023-06-05T14:08:56;3.85;;;2.33;;
6475;SDS011;3271;51.910;5.840;2023-06-05T14:11:22;4.55;;;2.70;;
6475;SDS011;3271;51.910;5.840;2023-06-05T14:13:48;3.05;;;2.65;;
6475;SDS011;3271;51.910;5.840;2023-06-05T14:16:13;2.80;;;2.15;;
6475;SDS011;3271;51.910;5.840;2023-06-05T14:18:40;3.05;;;2.65;;
6475;SDS011;3271;51.910;5.840;2023-06-05T14:21:06;3.17;;;2.72;;
6475;SDS011;3271;51.910;5.840;2023-06-05T14:23:32;3.63;;;3.17;;
6475;SDS011;3271;51.910;5.840;2023-06-05T14:25:58;3.58;;;2.70;;
6475;SDS011;3271;51.910;5.840;2023-06-05T14:28:24;3.05;;;2.72;;
6475;SDS011;3271;51.910;5.840;2023-06-05T14:30:50;3.47;;;2.92;;
6475;SDS011;3271;51.910;5.840;2023-06-05T14:33:16;3.30;;;2.55;;
6475;SDS011;3271;51.910;5.840;2023-06-05T14:35:43;2.53;;;2.20;;
6475;SDS011;3271;51.910;5.840;2023-06-05T14:38:09;4.03;;;2.80;;
6475;SDS011;3271;51.910;5.840;2023-06-05T14:40:39;3.55;;;2.70;;
6475;SDS011;3271;51.910;5.840;2023-06-05T14:43:05;4.63;;;2.20;;
6475;SDS011;3271;51.910;5.840;2023-06-05T14:45:31;2.45;;;2.25;;
6475;SDS011;3271;51.910;5.840;2023-06-05T14:47:57;2.30;;;2.10;;
6475;SDS011;3271;51.910;5.840;2023-06-05T14:50:23;2.58;;;2.38;;
6475;SDS011;3271;51.910;5.840;2023-06-05T14:52:49;2.65;;;2.45;;
6475;SDS011;3271;51.910;5.840;2023-06-05T14:55:15;2.50;;;2.30;;
6475;SDS011;3271;51.910;5.840;2023-06-05T14:57:41;3.22;;;2.50;;
6475;SDS011;3271;51.910;5.840;2023-06-05T15:00:07;3.47;;;3.00;;
6475;SDS011;3271;51.910;5.840;2023-06-05T15:02:34;3.28;;;2.33;;
6475;SDS011;3271;51.910;5.840;2023-06-05T15:05:00;5.10;;;2.80;;
6475;SDS011;3271;51.910;5.840;2023-06-05T15:07:34;3.80;;;2.47;;
6475;SDS011;3271;51.910;5.840;2023-06-05T15:10:01;3.53;;;3.00;;
6475;SDS011;3271;51.910;5.840;2023-06-05T15:12:27;2.78;;;2.50;;
6475;SDS011;3271;51.910;5.840;2023-06-05T15:14:53;3.35;;;2.90;;
6475;SDS011;3271;51.910;5.840;2023-06-05T15:17:19;4.38;;;2.70;;
6475;SDS011;3271;51.910;5.840;2023-06-05T15:19:45;4.55;;;2.28;;
6475;SDS011;3271;51.910;5.840;2023-06-05T15:22:11;8.02;;;3.05;;
6475;SDS011;3271;51.910;5.840;2023-06-05T15:24:37;3.13;;;2.63;;
6475;SDS011;3271;51.910;5.840;2023-06-05T15:27:03;3.63;;;2.67;;
6475;SDS011;3271;51.910;5.840;2023-06-05T15:29:29;5.32;;;3.20;;
6475;SDS011;3271;51.910;5.840;2023-06-05T15:31:55;2.78;;;2.20;;
6475;SDS011;3271;51.910;5.840;2023-06-05T15:34:21;3.85;;;2.60;;
6475;SDS011;3271;51.910;5.840;2023-06-05T15:36:47;3.50;;;2.35;;
6475;SDS011;3271;51.910;5.840;2023-06-05T15:39:13;3.08;;;2.78;;